Time;durP1;ratioP1;P1;durP2;ratioP2;P2;SDS_P1;SDS_P2;PMS_P1;PMS_P2;Temp;Humidity;BMP_temperature;BMP_pressure;BME280_temperature;BME280_humidity;BME280_pressure;Samples;Min_cycle;Max_cycle;Signal;HPM_P1;HPM_P2
2022/11/28 00:01:09;;;;;;;31.23;17.60;;;6.60;99.90;;;;;;5092120;28;20049;-85
2022/11/28 00:03:35;;;;;;;31.13;17.30;;;6.30;99.90;;;;;;5093492;28;20464;-81
2022/11/28 00:06:05;;;;;;;34.33;18.27;;;6.30;99.90;;;;;;5092524;28;20117;-82
2022/11/28 00:08:32;;;;;;;32.63;18.45;;;6.40;99.90;;;;;;5093600;28;20044;-80
2022/11/28 00:10:58;;;;;;;;;;;6.40;99.90;;;;;;5094103;28;20477;-80
2022/11/28 00:13:23;;;;;;;30.02;16.75;;;6.20;99.90;;;;;;5109232;28;19919;-81
2022/11/28 00:15:57;;;;;;;30.60;18.17;;;6.20;99.90;;;;;;5093060;28;20051;-82
2022/11/28 00:18:22;;;;;;;33.63;18.95;;;6.00;99.90;;;;;;5092320;28;20482;-80
2022/11/28 00:20:48;;;;;;;30.63;17.88;;;6.20;99.90;;;;;;5091825;28;20083;-80
2022/11/28 00:23:14;;;;;;;34.35;17.85;;;6.10;99.90;;;;;;5075015;28;20135;-81
2022/11/28 00:25:39;;;;;;;37.30;18.77;;;6.40;99.90;;;;;;5075140;28;20047;-80
2022/11/28 00:28:05;;;;;;;31.63;18.45;;;6.00;99.90;;;;;;5092946;28;20040;-77
2022/11/28 00:30:34;;;;;;;34.03;18.25;;;6.50;99.90;;;;;;5091703;28;20052;-81
2022/11/28 00:33:00;;;;;;;34.08;18.10;;;6.40;99.90;;;;;;5092849;28;20078;-83
2022/11/28 00:35:25;;;;;;;34.60;18.40;;;6.40;99.90;;;;;;5089540;28;20047;-81
2022/11/28 00:37:51;;;;;;;34.88;19.02;;;6.40;99.90;;;;;;5091688;28;20608;-79
2022/11/28 00:40:17;;;;;;;34.67;19.38;;;6.00;99.90;;;;;;5090784;28;20492;-80
2022/11/28 00:42:42;;;;;;;37.17;18.98;;;6.30;99.90;;;;;;5092574;28;20401;-79
2022/11/28 00:45:08;;;;;;;37.38;19.55;;;6.30;99.90;;;;;;5091539;28;20515;-80
2022/11/28 00:47:34;;;;;;;34.28;18.35;;;6.10;99.90;;;;;;5092734;28;20101;-81
2022/11/28 00:50:00;;;;;;;28.35;17.80;;;7.30;99.90;;;;;;5074718;28;20127;-80
2022/11/28 00:52:25;;;;;;;29.52;17.85;;;6.20;99.90;;;;;;5092729;28;20039;-81
2022/11/28 00:54:51;;;;;;;29.80;16.90;;;6.30;99.90;;;;;;5092410;28;20059;-80
2022/11/28 00:57:17;;;;;;;32.25;17.88;;;6.40;99.90;;;;;;5092218;28;20051;-79
2022/11/28 00:59:42;;;;;;;34.53;18.23;;;6.30;99.90;;;;;;5091619;28;20044;-80
2022/11/28 01:02:08;;;;;;;33.03;18.45;;;6.30;99.90;;;;;;5092612;28;20040;-80
2022/11/28 01:04:34;;;;;;;32.63;18.67;;;6.40;99.90;;;;;;5092439;28;20044;-81
2022/11/28 01:07:00;;;;;;;30.63;17.05;;;6.10;99.90;;;;;;5091372;28;20052;-79
2022/11/28 01:09:25;;;;;;;32.28;17.58;;;6.30;99.90;;;;;;5092148;28;20051;-80
2022/11/28 01:11:52;;;;;;;29.27;16.80;;;6.30;99.90;;;;;;5091900;28;20065;-80
2022/11/28 01:14:20;;;;;;;32.30;16.90;;;6.30;99.90;;;;;;5092515;28;20122;-79
2022/11/28 01:16:46;;;;;;;35.20;16.98;;;6.40;99.90;;;;;;5074581;28;20066;-79
2022/11/28 01:19:12;;;;;;;27.90;16.85;;;6.30;99.90;;;;;;5092245;28;20485;-78
2022/11/28 01:21:38;;;;;;;29.50;16.30;;;6.20;99.90;;;;;;5092127;28;20090;-80
2022/11/28 01:24:04;;;;;;;30.58;16.63;;;6.20;99.90;;;;;;5074306;28;20040;-78
2022/11/28 01:26:30;;;;;;;28.27;15.88;;;6.40;99.90;;;;;;5090751;28;20051;-77
2022/11/28 01:28:56;;;;;;;28.10;16.02;;;6.30;99.90;;;;;;5091074;28;20066;-77
2022/11/28 01:31:24;;;;;;;24.48;14.77;;;6.10;99.90;;;;;;5091046;28;20052;-75
2022/11/28 01:33:51;;;;;;;31.20;16.30;;;6.50;99.90;;;;;;5092020;28;20055;-77
2022/11/28 01:36:18;;;;;;;33.35;17.25;;;7.40;99.90;;;;;;5090973;28;20059;-77
2022/11/28 01:38:44;;;;;;;29.77;16.83;;;6.10;99.90;;;;;;5091848;28;20063;-77
2022/11/28 01:41:11;;;;;;;27.05;16.02;;;6.10;99.90;;;;;;5091692;28;20055;-77
2022/11/28 01:43:55;;;;;;;31.35;17.08;;;6.30;99.90;;;;;;5090646;28;20579;-78
2022/11/28 01:46:21;;;;;;;32.92;16.70;;;6.40;99.90;;;;;;5090701;28;20470;-78
2022/11/28 01:48:46;;;;;;;31.08;17.13;;;6.60;99.90;;;;;;5091906;28;20044;-78
2022/11/28 01:51:12;;;;;;;34.72;17.63;;;6.50;99.90;;;;;;5091910;28;20048;-79
2022/11/28 01:53:41;;;;;;;30.55;17.17;;;6.30;99.90;;;;;;5090694;28;20052;-77
2022/11/28 01:56:12;;;;;;;31.33;17.70;;;6.20;99.90;;;;;;5091623;28;20044;-78
2022/11/28 01:58:44;;;;;;;32.85;16.92;;;6.20;99.90;;;;;;5090826;28;20179;-78
2022/11/28 02:01:10;;;;;;;37.28;17.92;;;6.40;99.90;;;;;;5091915;28;20087;-76
2022/11/28 02:03:42;;;;;;;;;;;6.30;99.90;;;;;;5091256;28;20117;-77
2022/11/28 02:06:09;;;;;;;37.17;18.17;;;6.50;99.90;;;;;;5091946;28;20505;-77
2022/11/28 02:08:35;;;;;;;45.45;19.23;;;6.50;99.90;;;;;;5091758;28;20481;-78
2022/11/28 02:11:12;;;;;;;39.63;19.00;;;6.40;99.90;;;;;;5091425;28;20051;-77
2022/11/28 02:13:52;;;;;;;39.80;18.85;;;6.30;99.90;;;;;;5091677;28;20371;-77
2022/11/28 02:16:40;;;;;;;42.70;19.33;;;6.20;99.90;;;;;;5090678;28;20070;-77
2022/11/28 02:19:57;;;;;;;40.08;19.90;;;6.40;99.90;;;;;;5091717;28;20044;-78
2022/11/28 02:22:27;;;;;;;42.20;19.92;;;6.40;99.90;;;;;;5091461;28;20157;-77
2022/11/28 02:24:58;;;;;;;37.28;19.95;;;6.20;99.90;;;;;;5094809;28;20797;-78
2022/11/28 02:28:05;;;;;;;37.72;19.85;;;6.40;99.90;;;;;;5094408;28;20063;-78
2022/11/28 02:30:47;;;;;;;37.58;19.27;;;6.80;99.90;;;;;;5090173;28;20056;-79
2022/11/28 02:33:30;;;;;;;55.40;20.08;;;6.70;99.90;;;;;;5095285;28;20150;-78
2022/11/28 02:36:14;;;;;;;45.80;20.73;;;6.30;99.90;;;;;;5095219;28;20079;-79
2022/11/28 02:38:43;;;;;;;49.47;22.58;;;6.40;99.90;;;;;;5094803;28;20385;-77
2022/11/28 02:41:17;;;;;;;55.08;21.83;;;6.40;99.90;;;;;;5094096;28;20434;-76
2022/11/28 02:44:21;;;;;;;41.90;22.38;;;6.30;99.90;;;;;;5094749;28;20590;-76
2022/11/28 02:47:10;;;;;;;48.80;21.60;;;6.30;99.90;;;;;;5088105;28;20060;-76
2022/11/28 02:49:42;;;;;;;40.78;22.40;;;6.50;99.90;;;;;;5094937;28;20131;-76
2022/11/28 02:52:22;;;;;;;49.40;23.20;;;6.30;99.90;;;;;;5095001;28;20674;-77
2022/11/28 02:54:49;;;;;;;47.05;23.20;;;6.40;99.90;;;;;;5092983;28;20051;-76
2022/11/28 02:57:15;;;;;;;46.22;23.63;;;6.50;99.90;;;;;;5094843;28;20051;-78
2022/11/28 02:59:41;;;;;;;51.13;25.35;;;6.70;99.90;;;;;;5093752;28;20048;-78
2022/11/28 03:02:24;;;;;;;58.97;25.50;;;6.70;99.90;;;;;;5094812;28;20064;-78
2022/11/28 03:05:11;;;;;;;57.20;25.27;;;6.40;99.90;;;;;;5093672;28;20087;-77
2022/11/28 03:07:48;;;;;;;53.17;26.40;;;6.90;99.90;;;;;;5094448;28;20052;-77
2022/11/28 03:10:20;;;;;;;54.75;26.27;;;6.70;99.90;;;;;;5093555;28;20062;-78
2022/11/28 03:13:03;;;;;;;61.33;27.05;;;6.50;99.90;;;;;;5093527;28;20040;-78
2022/11/28 03:15:45;;;;;;;61.67;27.52;;;6.60;99.90;;;;;;5094498;28;20052;-77
2022/11/28 03:18:23;;;;;;;57.00;27.95;;;6.70;99.90;;;;;;5094465;28;20051;-76
2022/11/28 03:21:04;;;;;;;57.97;28.25;;;6.60;99.90;;;;;;5094398;28;20044;-77
2022/11/28 03:23:42;;;;;;;65.18;27.88;;;6.60;99.90;;;;;;5094156;28;20126;-77
2022/11/28 03:26:50;;;;;;;60.40;28.48;;;6.70;99.90;;;;;;5094252;28;20050;-76
2022/11/28 03:29:40;;;;;;;67.35;29.40;;;6.50;99.90;;;;;;5054758;28;20044;-77
2022/11/28 03:32:11;;;;;;;59.40;29.70;;;6.60;99.90;;;;;;5092950;28;20139;-77
2022/11/28 03:34:43;;;;;;;64.43;29.90;;;6.50;99.90;;;;;;5093859;28;20123;-77
2022/11/28 03:37:29;;;;;;;66.15;30.73;;;;;;;;;;5092693;28;20146;-77
2022/11/28 03:40:02;;;;;;;70.25;31.45;;;6.80;99.90;;;;;;5093824;28;20146;-77
2022/11/28 03:42:33;;;;;;;71.43;32.75;;;7.60;99.90;;;;;;5093018;28;20117;-77
2022/11/28 03:45:12;;;;;;;63.42;32.10;;;6.40;99.90;;;;;;5093915;28;20105;-77
2022/11/28 03:47:43;;;;;;;69.93;33.15;;;6.60;99.90;;;;;;5093968;28;20040;-79
2022/11/28 03:50:16;;;;;;;68.35;31.30;;;6.80;99.90;;;;;;5093872;28;20047;-78
2022/11/28 03:52:52;;;;;;;74.20;32.10;;;7.20;99.90;;;;;;5075617;28;20067;-78
2022/11/28 03:55:40;;;;;;;71.35;33.55;;;6.80;99.90;;;;;;5093723;28;20051;-79
2022/11/28 03:58:06;;;;;;;74.47;33.30;;;6.90;99.90;;;;;;5087200;28;20064;-78
2022/11/28 04:00:36;;;;;;;65.10;31.23;;;7.60;99.90;;;;;;5093945;28;20495;-78
2022/11/28 04:03:14;;;;;;;73.45;32.50;;;6.80;99.90;;;;;;5093755;28;20070;-79
2022/11/28 04:05:43;;;;;;;83.88;32.65;;;7.00;99.90;;;;;;5092306;28;20062;-79
2022/11/28 04:08:27;;;;;;;66.20;31.92;;;7.10;99.90;;;;;;5093483;28;20040;-79
2022/11/28 04:11:01;;;;;;;77.60;33.17;;;6.80;99.90;;;;;;5093447;28;20085;-79
2022/11/28 04:13:41;;;;;;;77.45;33.10;;;6.90;99.90;;;;;;5092210;28;20051;-79
2022/11/28 04:16:07;;;;;;;65.05;31.38;;;6.90;99.90;;;;;;5093301;28;20048;-78
2022/11/28 04:18:37;;;;;;;78.22;33.83;;;7.10;99.90;;;;;;5093365;28;20040;-79
2022/11/28 04:21:11;;;;;;;61.75;31.75;;;6.80;99.90;;;;;;5092977;28;20512;-78
2022/11/28 04:23:39;;;;;;;70.53;32.33;;;7.20;99.90;;;;;;5092088;28;20048;-78
2022/11/28 04:26:17;;;;;;;79.55;32.33;;;6.80;99.90;;;;;;5093068;28;20490;-79
2022/11/28 04:28:45;;;;;;;67.07;31.55;;;6.80;99.90;;;;;;5091680;28;20044;-79
2022/11/28 04:31:12;;;;;;;73.97;32.67;;;7.00;99.90;;;;;;5091727;28;20435;-79
2022/11/28 04:33:41;;;;;;;76.50;33.70;;;6.90;99.90;;;;;;5092956;28;20043;-79
2022/11/28 04:36:10;;;;;;;79.53;33.70;;;6.60;99.90;;;;;;5092641;28;20396;-78
2022/11/28 04:38:38;;;;;;;70.70;33.42;;;7.50;99.90;;;;;;5092684;28;20070;-79
2022/11/28 04:41:08;;;;;;;77.20;34.60;;;6.90;99.90;;;;;;5092914;28;20048;-79
2022/11/28 04:43:38;;;;;;;81.22;34.40;;;7.20;99.90;;;;;;5092837;28;20048;-79
2022/11/28 04:46:13;;;;;;;69.15;31.38;;;6.80;99.90;;;;;;5092198;28;20051;-78
2022/11/28 04:48:39;;;;;;;61.75;31.48;;;6.90;99.90;;;;;;5092727;28;20137;-78
2022/11/28 04:51:15;;;;;;;63.75;30.23;;;7.10;99.90;;;;;;5091072;28;20178;-78
2022/11/28 04:54:11;;;;;;;82.13;33.35;;;6.80;99.90;;;;;;5092576;28;20062;-79
2022/11/28 04:56:50;;;;;;;80.00;33.55;;;7.20;99.90;;;;;;5083943;28;20090;-79
2022/11/28 04:59:17;;;;;;;68.35;30.67;;;6.90;99.90;;;;;;5092582;28;20071;-78
2022/11/28 05:01:44;;;;;;;65.70;31.35;;;6.90;99.90;;;;;;5092491;28;20116;-79
2022/11/28 05:04:12;;;;;;;67.13;31.67;;;6.80;99.90;;;;;;5092238;28;20079;-79
2022/11/28 05:06:38;;;;;;;76.95;33.60;;;7.90;99.90;;;;;;5091346;28;20531;-79
2022/11/28 05:09:04;;;;;;;61.55;31.77;;;7.00;99.90;;;;;;5091160;28;20283;-82
2022/11/28 05:11:30;;;;;;;;;;;7.40;99.90;;;;;;5092849;28;20051;-81
2022/11/28 05:13:55;;;;;;;65.25;30.50;;;7.60;99.90;;;;;;5091170;28;19920;-80
2022/11/28 05:16:22;;;;;;;63.47;30.88;;;7.00;99.90;;;;;;5090968;28;20050;-81
2022/11/28 05:18:48;;;;;;;70.28;31.48;;;7.50;99.90;;;;;;5091905;28;20076;-80
2022/11/28 05:21:14;;;;;;;69.35;31.38;;;7.20;99.90;;;;;;5092180;28;20108;-78
2022/11/28 05:23:42;;;;;;;64.78;29.58;;;7.40;99.90;;;;;;5074308;28;20684;-80
2022/11/28 05:26:11;;;;;;;63.75;30.38;;;7.50;99.90;;;;;;5092105;28;20047;-80
2022/11/28 05:28:37;;;;;;;75.28;30.48;;;8.20;99.90;;;;;;5092140;28;20123;-79
2022/11/28 05:31:03;;;;;;;71.97;31.80;;;7.50;99.90;;;;;;5092148;28;20123;-79
2022/11/28 05:33:29;;;;;;;;;;;7.70;99.90;;;;;;5092167;28;20047;-80
2022/11/28 05:36:00;;;;;;;63.38;27.92;;;7.90;99.90;;;;;;5092394;28;19930;-79
2022/11/28 05:38:26;;;;;;;62.72;29.50;;;7.90;99.90;;;;;;5091847;28;20044;-79
2022/11/28 05:40:52;;;;;;;72.97;29.63;;;7.50;99.90;;;;;;5091650;28;20066;-80
2022/11/28 05:43:20;;;;;;;59.00;26.95;;;7.60;99.90;;;;;;5090700;28;20168;-78
2022/11/28 05:45:46;;;;;;;71.65;29.17;;;7.30;99.90;;;;;;5090694;28;20132;-78
2022/11/28 05:48:12;;;;;;;49.63;26.33;;;7.50;99.90;;;;;;5091351;28;20072;-78
2022/11/28 05:50:39;;;;;;;55.42;28.35;;;7.50;99.90;;;;;;5074156;28;20074;-79
2022/11/28 05:53:05;;;;;;;58.40;26.70;;;7.40;99.90;;;;;;5090928;28;20056;-79
2022/11/28 05:55:30;;;;;;;59.75;27.13;;;8.20;99.90;;;;;;5090682;28;20056;-78
2022/11/28 05:57:56;;;;;;;59.28;27.05;;;7.30;99.90;;;;;;5094827;28;20087;-77
2022/11/28 06:00:22;;;;;;;55.55;25.77;;;7.50;99.90;;;;;;5094871;28;20047;-78
2022/11/28 06:02:47;;;;;;;57.40;25.75;;;7.60;99.90;;;;;;5094515;28;20094;-78
2022/11/28 06:05:13;;;;;;;59.22;25.50;;;7.60;99.90;;;;;;5077965;28;20048;-78
2022/11/28 06:07:39;;;;;;;61.38;25.75;;;7.50;99.90;;;;;;5095778;28;20114;-79
2022/11/28 06:10:06;;;;;;;55.65;24.05;;;7.80;99.90;;;;;;5094500;28;20048;-78
2022/11/28 06:12:32;;;;;;;50.92;24.25;;;7.40;99.90;;;;;;5094606;28;20056;-78
2022/11/28 06:14:57;;;;;;;52.47;23.90;;;7.30;99.90;;;;;;5095559;28;20047;-77
2022/11/28 06:17:23;;;;;;;53.63;23.80;;;7.40;99.90;;;;;;5094042;28;20044;-78
2022/11/28 06:19:49;;;;;;;51.53;23.33;;;7.30;99.90;;;;;;5094319;28;20048;-78
2022/11/28 06:22:14;;;;;;;51.75;24.17;;;7.60;99.90;;;;;;5094416;28;20479;-78
2022/11/28 06:24:40;;;;;;;58.83;23.85;;;7.30;99.90;;;;;;5095539;28;20089;-79
2022/11/28 06:27:06;;;;;;;55.10;24.83;;;7.70;99.90;;;;;;5095404;28;20083;-76
2022/11/28 06:29:31;;;;;;;58.05;25.70;;;7.50;99.90;;;;;;5094253;28;20400;-78
2022/11/28 06:31:57;;;;;;;52.35;24.35;;;7.60;99.90;;;;;;5094035;28;20419;-78
2022/11/28 06:34:23;;;;;;;32.47;16.13;;;7.60;99.90;;;;;;5095142;28;20122;-79
2022/11/28 06:36:49;;;;;;;51.88;22.13;;;7.60;99.90;;;;;;5094234;28;20071;-79
2022/11/28 06:39:15;;;;;;;45.72;20.55;;;7.70;99.90;;;;;;5093822;28;20063;-79
2022/11/28 06:41:42;;;;;;;50.63;21.80;;;7.70;99.90;;;;;;5095053;28;20052;-78
2022/11/28 06:44:13;;;;;;;42.55;21.27;;;8.30;99.90;;;;;;5094069;28;20044;-78
2022/11/28 06:46:38;;;;;;;47.58;21.42;;;7.90;99.90;;;;;;5094798;28;20055;-79
2022/11/28 06:49:04;;;;;;;47.15;22.58;;;7.80;99.90;;;;;;5095071;28;20107;-79
2022/11/28 06:51:30;;;;;;;47.00;21.02;;;7.80;99.90;;;;;;5076993;28;20048;-79
2022/11/28 06:53:56;;;;;;;45.90;21.33;;;7.70;99.90;;;;;;5093739;28;20472;-80
2022/11/28 06:56:22;;;;;;;47.60;20.83;;;8.60;99.90;;;;;;5094841;28;20511;-80
2022/11/28 07:04:09;;;;;;;47.30;21.37;;;7.40;99.90;;;;;;5143212;27;1432106;-82
2022/11/28 07:06:35;;;;;;;50.05;21.65;;;7.70;99.90;;;;;;5171805;27;20073;-81
2022/11/28 07:09:01;;;;;;;55.22;22.25;;;7.70;99.90;;;;;;5171816;27;20478;-80
2022/11/28 07:11:29;;;;;;;44.00;20.95;;;7.70;99.90;;;;;;5171694;27;20394;-81
2022/11/28 07:13:56;;;;;;;45.08;20.85;;;7.90;99.90;;;;;;5171379;27;20854;-81
2022/11/28 07:16:25;;;;;;;49.30;20.30;;;7.90;99.90;;;;;;5171380;27;20054;-81
2022/11/28 07:18:51;;;;;;;56.10;22.00;;;7.60;99.90;;;;;;5171627;27;20042;-80
2022/11/28 07:21:18;;;;;;;47.78;20.30;;;8.30;99.90;;;;;;5162239;27;20102;-80
2022/11/28 07:23:44;;;;;;;50.63;20.65;;;7.90;99.90;;;;;;5170328;27;20447;-81
2022/11/28 07:26:12;;;;;;;49.42;20.25;;;7.90;99.90;;;;;;5170049;27;20550;-81
2022/11/28 07:28:38;;;;;;;38.00;19.02;;;8.60;99.90;;;;;;5170039;27;20047;-80
2022/11/28 07:31:09;;;;;;;47.25;19.58;;;7.80;99.90;;;;;;5152009;27;20510;-81
2022/11/28 07:33:36;;;;;;;48.30;19.77;;;7.70;99.90;;;;;;5170692;27;20038;-80
2022/11/28 07:36:03;;;;;;;44.55;19.90;;;7.70;99.90;;;;;;5169932;27;20057;-79
2022/11/28 07:38:29;;;;;;;42.10;18.42;;;7.60;99.90;;;;;;5170454;27;20047;-79
2022/11/28 07:41:01;;;;;;;41.25;18.75;;;8.60;99.90;;;;;;5170386;27;20045;-78
2022/11/28 07:43:27;;;;;;;37.55;17.73;;;8.50;99.90;;;;;;5169768;27;20038;-78
2022/11/28 07:45:52;;;;;;;38.50;18.20;;;7.80;99.90;;;;;;5170233;27;20536;-78
2022/11/28 07:48:18;;;;;;;42.50;18.73;;;7.90;99.90;;;;;;5170415;27;20417;-78
2022/11/28 07:50:43;;;;;;;34.00;16.65;;;7.90;99.90;;;;;;5169398;27;20121;-78
2022/11/28 07:53:10;;;;;;;37.50;16.30;;;7.70;99.90;;;;;;5169848;27;20045;-78
2022/11/28 07:55:35;;;;;;;30.95;15.38;;;7.60;99.90;;;;;;5168755;27;20080;-77
2022/11/28 07:58:02;;;;;;;34.33;16.35;;;8.40;99.90;;;;;;5151584;27;20043;-77
2022/11/28 08:00:28;;;;;;;34.58;15.38;;;8.60;99.90;;;;;;5170748;27;20046;-78
2022/11/28 08:02:54;;;;;;;33.97;15.45;;;8.20;99.90;;;;;;5170538;27;20054;-77
2022/11/28 08:05:19;;;;;;;37.92;15.90;;;7.60;99.90;;;;;;5170595;27;20050;-77
2022/11/28 08:07:47;;;;;;;33.45;16.38;;;8.40;99.90;;;;;;5170858;27;20046;-77
2022/11/28 08:10:13;;;;;;;38.33;16.40;;;8.40;99.90;;;;;;5170616;27;20058;-78
2022/11/28 08:12:38;;;;;;;35.78;15.25;;;8.10;99.90;;;;;;5151620;27;20038;-78
2022/11/28 08:15:04;;;;;;;33.28;15.48;;;8.00;99.90;;;;;;5159284;27;20042;-77
2022/11/28 08:17:30;;;;;;;34.00;16.02;;;7.70;99.90;;;;;;5156490;27;20057;-77
2022/11/28 08:19:56;;;;;;;38.28;16.58;;;9.00;99.90;;;;;;5156444;27;20045;-77
2022/11/28 08:22:21;;;;;;;36.00;16.10;;;8.20;99.90;;;;;;5156056;27;20051;-77
2022/11/28 08:24:47;;;;;;;33.40;16.65;;;8.00;99.90;;;;;;5156359;27;20138;-77
2022/11/28 08:27:12;;;;;;;39.92;16.88;;;8.90;99.90;;;;;;5156052;27;20134;-77
2022/11/28 08:29:38;;;;;;;35.30;17.00;;;8.10;99.90;;;;;;5156343;27;20087;-77
2022/11/28 08:32:04;;;;;;;34.67;16.70;;;8.90;99.90;;;;;;5155952;27;20449;-77
2022/11/28 08:34:30;;;;;;;33.92;16.05;;;7.90;99.90;;;;;;5156095;27;20501;-77
2022/11/28 08:36:56;;;;;;;40.25;17.05;;;9.30;99.90;;;;;;5155897;27;20086;-77
2022/11/28 08:39:21;;;;;;;37.13;16.45;;;8.70;99.90;;;;;;5156301;27;20095;-76
2022/11/28 08:41:47;;;;;;;37.83;16.45;;;7.90;99.90;;;;;;5155808;27;20619;-77
2022/11/28 08:44:13;;;;;;;32.88;16.00;;;7.90;99.90;;;;;;5148065;27;20042;-77
2022/11/28 08:46:38;;;;;;;35.95;15.60;;;8.20;99.90;;;;;;5154875;27;20521;-77
2022/11/28 08:49:04;;;;;;;36.58;16.17;;;8.10;99.90;;;;;;5155070;27;20121;-77
2022/11/28 08:51:30;;;;;;;34.28;16.25;;;8.60;99.90;;;;;;5154760;27;20042;-77
2022/11/28 08:53:55;;;;;;;33.13;15.05;;;8.30;99.90;;;;;;5155151;27;20521;-79
2022/11/28 08:56:21;;;;;;;33.92;15.63;;;8.10;99.90;;;;;;5154722;27;20372;-78
2022/11/28 08:58:47;;;;;;;34.53;14.73;;;8.20;99.90;;;;;;5118799;27;20050;-78
2022/11/28 09:01:21;;;;;;;33.83;14.23;;;7.90;99.90;;;;;;5136451;27;20114;-80
2022/11/28 09:03:47;;;;;;;30.48;13.82;;;8.70;99.90;;;;;;5154720;27;20129;-79
2022/11/28 09:06:14;;;;;;;29.45;12.95;;;8.20;99.90;;;;;;5154395;27;20059;-80
2022/11/28 09:08:40;;;;;;;31.77;14.32;;;8.00;99.90;;;;;;5154579;27;20047;-79
2022/11/28 09:11:11;;;;;;;33.33;14.43;;;8.30;99.90;;;;;;5154133;27;20471;-81
2022/11/28 09:13:37;;;;;;;29.58;13.63;;;8.60;99.90;;;;;;5153650;27;20050;-81
2022/11/28 09:16:04;;;;;;;30.90;13.25;;;8.00;99.90;;;;;;5156280;27;20406;-81
2022/11/28 09:18:29;;;;;;;29.92;13.43;;;8.20;99.90;;;;;;5160011;27;20047;-83
2022/11/28 09:21:08;;;;;;;30.75;13.40;;;7.80;99.90;;;;;;5157452;27;20046;-83
2022/11/28 09:23:34;;;;;;;25.55;12.18;;;8.30;99.90;;;;;;5155412;27;20125;-82
2022/11/28 09:26:06;;;;;;;26.23;11.98;;;7.90;99.90;;;;;;5148097;27;20122;-72
2022/11/28 09:28:31;;;;;;;25.52;11.68;;;8.30;99.90;;;;;;5153171;27;20129;-76
2022/11/28 09:31:01;;;;;;;26.90;12.25;;;9.30;99.90;;;;;;5151506;27;20136;-75
2022/11/28 09:33:27;;;;;;;23.23;11.20;;;8.40;99.90;;;;;;5154028;27;20041;-76
2022/11/28 09:35:54;;;;;;;27.50;11.68;;;8.00;99.90;;;;;;5152927;27;20791;-80
2022/11/28 09:38:21;;;;;;;24.38;11.65;;;9.20;99.90;;;;;;5153349;27;20047;-82
2022/11/28 09:40:47;;;;;;;29.10;11.85;;;9.10;99.90;;;;;;5136068;27;20081;-78
2022/11/28 09:43:42;;;;;;;25.75;11.50;;;9.60;99.90;;;;;;5153882;27;20046;-84
2022/11/28 09:46:14;;;;;;;33.53;12.15;;;9.00;99.90;;;;;;5134487;27;20054;-80
2022/11/28 09:48:50;;;;;;;32.90;13.10;;;8.30;99.90;;;;;;5153247;27;20047;-77
2022/11/28 09:51:34;;;;;;;30.65;13.20;;;10.20;99.90;;;;;;5133624;27;20087;-78
2022/11/28 09:54:15;;;;;;;33.22;13.48;;;8.50;99.90;;;;;;5140107;27;20134;-77
2022/11/28 09:56:41;;;;;;;36.72;14.45;;;8.10;99.90;;;;;;5153680;27;20391;-81
2022/11/28 09:59:26;;;;;;;34.95;14.00;;;9.70;99.90;;;;;;5143106;27;20106;-81
2022/11/28 10:02:21;;;;;;;39.75;14.63;;;8.70;99.90;;;;;;5153420;27;20050;-80
2022/11/28 10:05:19;;;;;;;38.33;14.82;;;8.20;99.90;;;;;;5132873;27;20108;-81
2022/11/28 10:08:09;;;;;;;38.08;14.82;;;8.60;99.90;;;;;;5138795;27;20043;-81
2022/11/28 10:10:48;;;;;;;39.45;14.88;;;8.40;99.90;;;;;;5153666;27;20039;-82
2022/11/28 10:13:40;;;;;;;43.55;16.35;;;8.60;99.90;;;;;;5152857;27;20108;-81
2022/11/28 10:16:24;;;;;;;41.92;15.63;;;9.10;99.90;;;;;;5148333;27;20138;-83
2022/11/28 10:18:59;;;;;;;42.80;16.20;;;8.60;99.90;;;;;;5153480;27;20126;-85
2022/11/28 10:21:49;;;;;;;46.45;16.92;;;8.60;99.90;;;;;;5134670;27;20773;-82
2022/11/28 10:24:21;;;;;;;48.53;16.55;;;8.70;99.90;;;;;;5153116;27;20390;-82
2022/11/28 10:26:57;;;;;;;51.67;17.65;;;8.30;99.90;;;;;;5153612;27;20061;-83
2022/11/28 10:29:44;;;;;;;48.97;17.60;;;8.60;99.90;;;;;;5134920;27;20095;-77
2022/11/28 10:32:16;;;;;;;55.92;19.55;;;8.50;99.90;;;;;;5153400;27;20043;-81
2022/11/28 10:34:52;;;;;;;47.22;18.40;;;8.70;99.90;;;;;;5140901;27;20047;-80
2022/11/28 10:37:25;;;;;;;62.92;19.40;;;8.90;99.90;;;;;;5149355;27;20054;-80
2022/11/28 10:39:51;;;;;;;54.80;19.38;;;9.00;99.90;;;;;;5153216;27;20047;-77
2022/11/28 10:42:34;;;;;;;54.33;19.52;;;8.70;99.90;;;;;;5152496;27;20142;-80
2022/11/28 10:45:26;;;;;;;58.40;19.65;;;9.00;99.90;;;;;;5124615;27;20121;-82
2022/11/28 10:48:06;;;;;;;65.68;19.80;;;8.90;99.90;;;;;;5152187;27;20038;-79
2022/11/28 10:51:03;;;;;;;63.83;20.10;;;9.10;99.90;;;;;;5151633;27;20129;-80
2022/11/28 10:53:47;;;;;;;68.20;20.23;;;9.10;99.90;;;;;;5153170;27;20101;-78
2022/11/28 10:56:36;;;;;;;60.72;19.48;;;9.40;99.90;;;;;;5153020;27;20502;-79
2022/11/28 10:59:10;;;;;;;61.72;20.73;;;8.50;99.90;;;;;;5153649;27;20057;-79
2022/11/28 11:01:39;;;;;;;70.05;20.42;;;8.90;99.90;;;;;;5153206;27;20112;-82
2022/11/28 11:04:16;;;;;;;67.00;20.70;;;9.50;99.90;;;;;;5152758;27;20051;-76
2022/11/28 11:06:42;;;;;;;54.67;21.05;;;10.50;99.90;;;;;;5152948;27;20095;-78
2022/11/28 11:09:11;;;;;;;65.82;21.23;;;9.00;99.90;;;;;;5152872;27;20039;-80
2022/11/28 11:11:44;;;;;;;73.05;22.77;;;9.60;99.90;;;;;;5153234;27;20103;-79
2022/11/28 11:14:10;;;;;;;73.90;23.05;;;9.00;99.90;;;;;;5134854;27;20069;-76
2022/11/28 11:16:49;;;;;;;;;;;9.00;99.90;;;;;;5153431;27;20122;-79
2022/11/28 11:19:35;;;;;;;62.58;21.35;;;9.30;99.90;;;;;;5152667;27;19968;-82
2022/11/28 11:22:20;;;;;;;52.15;19.42;;;9.30;99.90;;;;;;5133178;27;20379;-78
2022/11/28 11:25:04;;;;;;;60.60;21.13;;;9.30;99.90;;;;;;5152442;27;20046;-79
2022/11/28 11:27:30;;;;;;;50.92;18.35;;;8.80;99.90;;;;;;5152841;27;20137;-83
2022/11/28 11:29:57;;;;;;;62.67;20.70;;;9.20;99.90;;;;;;5117583;27;20410;-80
2022/11/28 11:32:28;;;;;;;57.22;20.60;;;10.50;99.90;;;;;;5153043;27;20050;-78
2022/11/28 11:34:56;;;;;;;60.03;18.85;;;9.30;99.90;;;;;;5153036;27;20046;-84
2022/11/28 11:37:32;;;;;;;56.00;19.45;;;9.20;99.90;;;;;;5152374;27;20054;-83
2022/11/28 11:39:59;;;;;;;66.43;21.45;;;9.30;99.90;;;;;;5152868;27;20079;-75
2022/11/28 11:42:28;;;;;;;74.97;20.90;;;10.30;99.90;;;;;;5152405;27;20038;-81
2022/11/28 11:44:54;;;;;;;58.95;19.77;;;9.10;99.90;;;;;;5152599;27;20587;-74
2022/11/28 11:47:40;;;;;;;66.22;20.50;;;10.10;99.90;;;;;;5152696;27;20065;-73
2022/11/28 11:50:14;;;;;;;55.17;19.85;;;9.30;99.90;;;;;;5146269;27;20051;-79
2022/11/28 11:52:40;;;;;;;57.25;19.70;;;9.20;99.90;;;;;;5118128;27;20047;-78
2022/11/28 11:55:11;;;;;;;61.78;20.30;;;9.10;99.90;;;;;;5136878;27;20050;-76
2022/11/28 11:57:44;;;;;;;57.22;18.35;;;9.20;99.90;;;;;;5149069;27;20087;-77
2022/11/28 12:00:13;;;;;;;48.65;18.48;;;9.10;99.90;;;;;;5156064;27;20107;-77
2022/11/28 12:02:55;;;;;;;48.35;19.00;;;9.20;99.90;;;;;;5155821;27;20051;-77
2022/11/28 12:05:27;;;;;;;47.05;18.25;;;9.40;99.90;;;;;;5155668;27;20457;-78
2022/11/28 12:07:56;;;;;;;48.08;17.27;;;10.20;99.90;;;;;;5156123;27;20417;-78
2022/11/28 12:10:25;;;;;;;59.83;18.20;;;9.30;99.90;;;;;;5137837;27;21078;-79
2022/11/28 12:12:51;;;;;;;52.63;17.45;;;9.20;99.90;;;;;;5155181;27;20074;-74
2022/11/28 12:15:35;;;;;;;47.45;17.90;;;9.30;99.90;;;;;;5145349;27;20051;-82
2022/11/28 12:18:19;;;;;;;46.75;17.05;;;9.10;99.90;;;;;;5134883;27;20152;-75
2022/11/28 12:20:54;;;;;;;42.65;16.88;;;9.90;99.90;;;;;;5119631;27;20040;-76
2022/11/28 12:23:34;;;;;;;53.03;17.88;;;9.40;99.90;;;;;;5137700;27;20071;-78
2022/11/28 12:26:17;;;;;;;41.33;18.05;;;9.00;99.90;;;;;;5136352;27;20047;-78
2022/11/28 12:29:01;;;;;;;37.95;16.45;;;9.70;99.90;;;;;;5134946;27;20050;-78
2022/11/28 12:31:53;;;;;;;48.60;17.73;;;9.40;99.90;;;;;;5154096;27;20549;-77
2022/11/28 12:34:40;;;;;;;45.35;18.25;;;9.70;99.90;;;;;;5153812;27;20047;-77
2022/11/28 12:37:15;;;;;;;45.17;18.50;;;9.40;99.90;;;;;;5153975;27;20082;-76
2022/11/28 12:40:13;;;;;;;44.95;17.45;;;9.50;99.90;;;;;;5153903;27;20500;-77
2022/11/28 12:43:14;;;;;;;49.10;18.55;;;9.00;99.90;;;;;;5155035;27;20042;-77
2022/11/28 12:45:49;;;;;;;54.85;18.60;;;9.10;99.90;;;;;;5155818;27;20042;-77
2022/11/28 12:48:33;;;;;;;44.90;17.67;;;9.10;99.90;;;;;;5155641;27;20046;-77
2022/11/28 12:51:05;;;;;;;48.15;18.10;;;9.30;99.90;;;;;;5155806;27;20169;-78
2022/11/28 12:53:53;;;;;;;50.17;18.67;;;10.30;99.90;;;;;;5155762;27;20038;-77
2022/11/28 12:56:31;;;;;;;53.35;18.27;;;9.30;99.90;;;;;;5136562;27;20043;-78
2022/11/28 12:59:31;;;;;;;53.92;18.65;;;9.40;99.90;;;;;;5155589;27;20133;-78
2022/11/28 13:02:33;;;;;;;55.40;19.60;;;9.50;99.90;;;;;;5155349;27;20410;-78
2022/11/28 13:05:18;;;;;;;61.55;20.38;;;9.40;99.90;;;;;;5155518;27;20061;-79
2022/11/28 13:08:03;;;;;;;61.28;19.60;;;9.10;99.90;;;;;;5155517;27;20082;-79